Time;durP1;ratioP1;P1;durP2;ratioP2;P2;SDS_P1;SDS_P2;PMS_P1;PMS_P2;Temp;Humidity;BMP_temperature;BMP_pressure;BME280_temperature;BME280_humidity;BME280_pressure;Samples;Min_cycle;Max_cycle;Signal;HPM_P1;HPM_P2
2023/06/10 00:01:34;;;;;;;7.63;4.60;;;;;;;15.00;100.00;101951.66;5066608;28;20586;-71
2023/06/10 00:03:59;;;;;;;8.77;4.43;;;;;;;14.97;100.00;101964.47;5061339;28;20565;-72
2023/06/10 00:06:25;;;;;;;8.73;4.20;;;;;;;14.96;100.00;101959.31;5060688;28;20235;-70
2023/06/10 00:08:51;;;;;;;6.57;4.30;;;;;;;14.95;100.00;101960.13;5067170;28;20231;-70
2023/06/10 00:11:17;;;;;;;7.60;4.50;;;;;;;14.83;100.00;101960.75;5069991;28;20629;-70
2023/06/10 00:13:42;;;;;;;8.20;5.03;;;;;;;14.87;100.00;101966.88;5069350;28;20292;-70
2023/06/10 00:16:08;;;;;;;9.93;4.40;;;;;;;14.83;100.00;101960.75;5070128;28;20693;-70
2023/06/10 00:18:36;;;;;;;8.97;4.70;;;;;;;14.72;100.00;101967.41;5066295;28;20204;-71
2023/06/10 00:21:04;;;;;;;7.40;4.30;;;;;;;14.63;100.00;101962.06;5064896;28;20217;-70
2023/06/10 00:23:37;;;;;;;8.80;4.90;;;;;;;14.64;100.00;101974.09;5066606;28;20212;-70
2023/06/10 00:26:02;;;;;;;9.40;4.70;;;;;;;14.52;100.00;101970.41;5070130;28;20409;-70
2023/06/10 00:28:28;;;;;;;10.10;5.23;;;;;;;14.53;100.00;101965.28;5064257;28;20185;-70
2023/06/10 00:30:55;;;;;;;7.07;4.20;;;;;;;14.48;100.00;101961.75;5069838;28;20840;-70
2023/06/10 00:33:21;;;;;;;7.63;4.57;;;;;;;14.47;100.00;101953.97;5066621;28;20247;-70
2023/06/10 00:35:46;;;;;;;9.90;5.00;;;;;;;14.32;100.00;101963.97;5066822;28;20251;-70
2023/06/10 00:38:14;;;;;;;10.40;4.33;;;;;;;14.41;100.00;101961.59;5067615;28;20189;-70
2023/06/10 00:40:42;;;;;;;7.53;4.37;;;;;;;14.36;100.00;101971.78;5070251;28;20224;-70
2023/06/10 00:43:08;;;;;;;7.83;4.40;;;;;;;14.30;100.00;101968.19;5068837;28;20217;-70
2023/06/10 00:45:33;;;;;;;9.63;4.27;;;;;;;14.27;100.00;101973.31;5069332;28;20194;-70
2023/06/10 00:48:00;;;;;;;7.90;4.67;;;;;;;14.28;100.00;101970.72;5069791;28;20241;-71
2023/06/10 00:50:26;;;;;;;10.33;4.63;;;;;;;14.25;100.00;101978.41;5065199;28;20193;-70
2023/06/10 00:52:53;;;;;;;7.47;4.43;;;;;;;14.27;100.00;101975.88;5068420;28;20588;-70
2023/06/10 00:55:19;;;;;;;10.63;4.57;;;;;;;14.18;100.00;101971.31;5065485;28;20221;-70
2023/06/10 00:57:46;;;;;;;6.87;3.97;;;;;;;14.15;100.00;101978.13;5068822;28;20189;-70
2023/06/10 01:00:13;;;;;;;8.57;4.10;;;;;;;14.11;100.00;101968.59;5067837;28;20227;-70
2023/06/10 01:02:38;;;;;;;8.90;4.30;;;;;;;14.01;100.00;101969.22;5064579;28;20213;-70
2023/06/10 01:05:05;;;;;;;10.60;4.50;;;;;;;14.03;100.00;101965.84;5068969;28;20204;-70
2023/06/10 01:07:53;;;;;;;8.63;4.40;;;;;;;13.86;100.00;101963.72;5068925;28;20204;-70
2023/06/10 01:10:29;;;;;;;5.33;3.87;;;;;;;13.91;100.00;101967.25;5068509;28;20223;-70
2023/06/10 01:13:08;;;;;;;8.47;4.13;;;;;;;13.93;100.00;101963.00;5067564;28;20216;-70
2023/06/10 01:15:34;;;;;;;8.07;4.00;;;;;;;13.94;100.00;101970.75;5067152;28;20201;-71
2023/06/10 01:18:08;;;;;;;8.70;3.87;;;;;;;13.79;100.00;101972.97;5077922;28;20220;-70
2023/06/10 01:20:34;;;;;;;7.60;4.13;;;;;;;13.82;100.00;101969.59;5064944;28;20213;-70
2023/06/10 01:23:02;;;;;;;13.03;4.30;;;;;;;13.78;100.00;101972.94;5063287;28;20251;-70
2023/06/10 01:25:29;;;;;;;7.03;4.37;;;;;;;13.75;100.00;101978.00;5063903;28;20266;-70
2023/06/10 01:28:07;;;;;;;8.30;4.00;;;;;;;13.69;100.00;101978.75;5074097;28;20189;-71
2023/06/10 01:30:41;;;;;;;7.83;4.30;;;;;;;13.66;100.00;101980.34;5076974;28;20319;-70
2023/06/10 01:33:09;;;;;;;8.80;4.27;;;;;;;13.64;100.00;101975.19;5065060;28;20219;-71
2023/06/10 01:35:37;;;;;;;11.83;4.23;;;;;;;13.59;100.00;101975.88;5067090;28;20666;-71
2023/06/10 01:38:03;;;;;;;7.00;3.67;;;;;;;13.57;100.00;101969.81;5064579;28;20240;-70
2023/06/10 01:40:31;;;;;;;12.13;4.30;;;;;;;13.52;100.00;101969.72;5068370;28;20690;-70
2023/06/10 01:42:56;;;;;;;8.93;4.43;;;;;;;13.51;100.00;101975.69;5068257;28;20223;-70
2023/06/10 01:45:22;;;;;;;6.43;4.00;;;;;;;13.48;100.00;101972.19;5066777;28;20193;-70
2023/06/10 01:47:47;;;;;;;9.07;3.80;;;;;;;13.48;100.00;101967.88;5068502;28;20343;-70
2023/06/10 01:50:12;;;;;;;8.37;4.10;;;;;;;13.44;100.00;101967.78;5063981;28;20295;-70
2023/06/10 01:52:38;;;;;;;7.40;3.43;;;;;;;13.38;100.00;101970.19;5062879;28;20228;-70
2023/06/10 01:55:04;;;;;;;7.73;3.73;;;;;;;13.36;100.00;101969.28;5069319;28;20276;-70
2023/06/10 01:57:29;;;;;;;7.80;3.27;;;;;;;13.29;100.00;101967.38;5069365;28;20204;-70
2023/06/10 01:59:55;;;;;;;6.43;3.57;;;;;;;13.24;100.00;101967.25;5068566;28;20212;-70
2023/06/10 02:02:22;;;;;;;7.90;3.97;;;;;;;13.26;100.00;101967.31;5068583;28;20212;-70
2023/06/10 02:04:47;;;;;;;6.40;3.60;;;;;;;13.27;100.00;101966.47;5067205;28;20203;-70
2023/06/10 02:07:13;;;;;;;8.73;3.67;;;;;;;13.25;100.00;101974.13;5063742;28;20185;-70
2023/06/10 02:09:38;;;;;;;6.70;4.00;;;;;;;13.26;100.00;101967.31;5065687;28;20220;-70
2023/06/10 02:12:04;;;;;;;10.67;3.70;;;;;;;13.16;100.00;101970.47;5067163;28;20196;-70
2023/06/10 02:14:32;;;;;;;7.10;3.57;;;;;;;13.09;100.00;101968.53;5066921;28;20198;-70
2023/06/10 02:16:58;;;;;;;8.17;3.60;;;;;;;13.07;100.00;101960.78;5067590;28;20209;-70
2023/06/10 02:19:25;;;;;;;5.93;3.30;;;;;;;13.08;100.00;101977.94;5064003;28;20228;-70
2023/06/10 02:21:50;;;;;;;8.90;3.37;;;;;;;13.10;100.00;101967.72;5067168;28;20234;-70
2023/06/10 02:24:16;;;;;;;9.03;4.20;;;;;;;13.04;100.00;101970.13;5066467;28;20189;-70
2023/06/10 02:26:41;;;;;;;8.00;3.27;;;;;;;13.06;100.00;101974.47;5066047;28;20250;-70
2023/06/10 02:29:07;;;;;;;6.73;3.63;;;;;;;12.99;100.00;101970.00;5064708;28;20185;-70
2023/06/10 02:31:35;;;;;;;7.93;3.17;;;;;;;12.97;100.00;101976.78;5068353;28;20270;-70
2023/06/10 02:34:02;;;;;;;8.90;4.33;;;;;;;12.93;100.00;101975.81;5067409;28;20209;-71
2023/06/10 02:36:29;;;;;;;7.23;3.30;;;;;;;12.90;100.00;101974.84;5057587;28;20558;-70
2023/06/10 02:38:54;;;;;;;8.27;3.70;;;;;;;12.86;100.00;101976.44;5068949;28;20185;-70
2023/06/10 02:41:21;;;;;;;6.67;3.33;;;;;;;12.85;100.00;101976.41;5066810;28;20705;-70
2023/06/10 02:43:49;;;;;;;6.97;3.23;;;;;;;12.78;100.00;101983.09;5066104;28;20208;-70
2023/06/10 02:46:14;;;;;;;4.13;3.13;;;;;;;12.78;100.00;101977.06;5062836;28;20207;-70
2023/06/10 02:48:46;;;;;;;9.33;3.67;;;;;;;12.82;100.00;101981.47;5064390;28;20268;-70
2023/06/10 02:51:13;;;;;;;7.57;3.20;;;;;;;12.81;100.00;101985.72;5065680;28;20577;-70
2023/06/10 02:53:43;;;;;;;10.73;3.60;;;;;;;12.78;100.00;101977.97;5065060;28;20690;-71
2023/06/10 02:56:12;;;;;;;6.10;3.10;;;;;;;12.78;100.00;101992.50;5066760;28;20189;-70
2023/06/10 02:58:37;;;;;;;7.77;3.23;;;;;;;12.77;100.00;101980.47;5066069;28;20246;-70
2023/06/10 03:01:04;;;;;;;6.57;3.40;;;;;;;12.77;100.00;101989.03;5066343;28;20823;-70
2023/06/10 03:03:41;;;;;;;8.33;3.50;;;;;;;12.76;100.00;101982.16;5065064;28;20223;-70
2023/06/10 03:06:13;;;;;;;6.90;3.07;;;;;;;12.72;100.00;101988.03;5064329;28;20185;-71
2023/06/10 03:08:40;;;;;;;6.53;3.53;;;;;;;12.69;100.00;101985.41;5073699;28;20670;-71
2023/06/10 03:11:10;;;;;;;12.17;3.37;;;;;;;12.70;100.00;101987.13;5066248;28;20185;-70
2023/06/10 03:13:35;;;;;;;8.33;3.37;;;;;;;12.66;100.00;101990.44;5064714;28;20219;-71
2023/06/10 03:16:03;;;;;;;8.67;3.80;;;;;;;12.61;100.00;101984.28;5066670;28;20250;-71
2023/06/10 03:18:29;;;;;;;10.13;3.67;;;;;;;12.59;100.00;101985.09;5064386;28;20619;-71
2023/06/10 03:20:55;;;;;;;8.97;2.87;;;;;;;12.62;100.00;101993.75;5064813;28;20216;-70
2023/06/10 03:23:22;;;;;;;5.70;2.67;;;;;;;12.62;100.00;101993.75;5063764;28;20270;-71
2023/06/10 03:25:49;;;;;;;7.60;3.57;;;;;;;12.57;100.00;101994.41;5066411;28;20197;-71
2023/06/10 03:28:17;;;;;;;8.17;2.97;;;;;;;12.57;100.00;101991.84;5066247;28;20292;-71
2023/06/10 03:30:43;;;;;;;6.47;2.77;;;;;;;12.59;100.00;101992.78;5064711;28;20181;-71
2023/06/10 03:33:09;;;;;;;13.57;3.80;;;;;;;12.59;100.00;101993.63;5066085;28;20246;-71
2023/06/10 03:35:34;;;;;;;11.13;3.63;;;;;;;12.59;100.00;101990.22;5076194;28;20305;-72
2023/06/10 03:38:01;;;;;;;6.63;3.00;;;;;;;12.62;100.00;101993.75;5049052;28;20762;-71
2023/06/10 03:40:26;;;;;;;5.03;2.63;;;;;;;12.56;100.00;101980.72;5066478;28;20213;-71
2023/06/10 03:42:52;;;;;;;7.30;3.47;;;;;;;12.58;100.00;101984.19;5065280;28;20216;-71
2023/06/10 03:45:18;;;;;;;6.80;3.13;;;;;;;12.61;100.00;101979.16;5065792;28;20188;-72
2023/06/10 03:47:45;;;;;;;8.57;3.37;;;;;;;12.62;100.00;101985.16;5065063;28;20318;-73
2023/06/10 03:50:13;;;;;;;9.67;3.07;;;;;;;12.64;100.00;101986.09;5062968;28;20204;-72
2023/06/10 03:52:41;;;;;;;4.70;3.23;;;;;;;12.66;100.00;101987.00;5074259;28;20297;-71
2023/06/10 03:55:08;;;;;;;6.27;3.00;;;;;;;12.62;100.00;101982.59;5066012;28;20192;-71
2023/06/10 03:57:33;;;;;;;5.00;2.40;;;;;;;12.65;100.00;101981.00;5065194;28;20788;-72
2023/06/10 03:59:59;;;;;;;7.33;2.90;;;;;;;12.67;100.00;101983.63;5066422;28;20359;-72
2023/06/10 04:02:25;;;;;;;8.63;2.60;;;;;;;12.72;100.00;101985.47;5049453;28;20740;-72
2023/06/10 04:04:51;;;;;;;7.07;2.80;;;;;;;12.68;100.00;101991.34;5065765;28;20375;-70
2023/06/10 04:07:18;;;;;;;8.30;2.70;;;;;;;12.73;100.00;101987.19;5062144;28;20196;-70
2023/06/10 04:09:44;;;;;;;8.23;2.63;;;;;;;12.81;100.00;101990.88;5081000;28;20662;-69
2023/06/10 04:12:10;;;;;;;6.40;2.90;;;;;;;12.84;100.00;101984.94;5066515;28;20213;-70
2023/06/10 04:14:37;;;;;;;6.97;2.50;;;;;;;12.90;100.00;101993.72;5063777;28;20288;-70
2023/06/10 04:17:07;;;;;;;5.27;2.60;;;;;;;12.91;100.00;101984.31;5066182;28;20723;-70
2023/06/10 04:19:33;;;;;;;6.97;2.70;;;;;;;12.97;100.00;101979.38;5048976;28;20217;-70
2023/06/10 04:22:01;;;;;;;5.13;2.93;;;;;;;13.05;100.00;101989.84;5071235;28;20569;-70
2023/06/10 04:24:26;;;;;;;5.80;2.90;;;;;;;13.06;100.00;101989.91;5067013;28;20288;-70
2023/06/10 04:26:52;;;;;;;8.53;2.93;;;;;;;13.12;100.00;101989.22;5067364;28;20315;-70
2023/06/10 04:29:17;;;;;;;6.53;2.20;;;;;;;13.20;100.00;101988.56;5049387;28;20208;-70
2023/06/10 04:31:45;;;;;;;7.17;3.00;;;;;;;13.22;100.00;101981.75;5054383;28;20249;-70
2023/06/10 04:34:11;;;;;;;8.60;3.10;;;;;;;13.30;100.00;101982.84;5063630;28;20212;-70
2023/06/10 04:36:36;;;;;;;6.63;2.90;;;;;;;13.38;100.00;101985.63;5064400;28;20231;-70
2023/06/10 04:39:03;;;;;;;5.90;2.40;;;;;;;13.37;100.00;101984.75;5046888;28;20198;-70
2023/06/10 04:41:29;;;;;;;6.23;2.40;;;;;;;13.46;100.00;101991.84;5061652;28;20690;-70
2023/06/10 04:43:54;;;;;;;5.80;2.50;;;;;;;13.51;100.00;101990.25;5065616;28;20216;-70
2023/06/10 04:46:20;;;;;;;5.37;2.10;;;;;;;13.63;100.00;101991.44;5066731;28;20216;-70
2023/06/10 04:48:46;;;;;;;7.57;2.80;;;;;;;13.72;100.00;101998.53;5063858;28;20200;-70
2023/06/10 04:51:13;;;;;;;6.83;2.43;;;;;;;13.76;100.00;101990.91;5063185;28;20197;-70
2023/06/10 04:53:39;;;;;;;8.07;2.87;;;;;;;13.88;100.00;101995.50;5064114;28;20216;-70
2023/06/10 04:56:04;;;;;;;5.83;2.40;;;;;;;13.94;100.00;101991.38;5067052;28;20204;-70
2023/06/10 04:58:30;;;;;;;6.90;2.50;;;;;;;14.03;100.00;101991.59;5068641;28;20201;-70
2023/06/10 05:00:55;;;;;;;9.70;2.73;;;;;;;14.15;100.00;101989.31;5069202;28;20274;-70
2023/06/10 05:03:21;;;;;;;6.07;2.30;;;;;;;14.28;100.00;101986.19;5049868;28;20212;-70
2023/06/10 05:05:46;;;;;;;8.07;2.30;;;;;;;14.37;100.00;101982.97;5068205;28;20201;-70
2023/06/10 05:08:12;;;;;;;9.77;2.00;;;;;;;14.38;100.00;101989.84;5065398;28;20189;-70
2023/06/10 05:10:37;;;;;;;5.50;2.20;;;;;;;14.49;100.00;101989.25;5069383;28;20189;-70
2023/06/10 05:13:03;;;;;;;4.87;2.13;;;;;;;14.59;100.00;101993.78;5070418;28;20232;-70
2023/06/10 05:15:29;;;;;;;5.20;2.13;;;;;;;14.71;100.00;101995.75;5069077;28;20186;-70
2023/06/10 05:17:58;;;;;;;6.37;2.00;;;;;;;14.81;100.00;102000.25;5068330;28;20196;-69
2023/06/10 05:20:25;;;;;;;5.13;2.37;;;;;;;14.92;100.00;101993.63;5066609;28;20213;-70
2023/06/10 05:22:50;;;;;;;7.43;2.10;;;;;;;15.04;100.00;102004.16;5066503;28;20282;-70
2023/06/10 05:25:16;;;;;;;6.70;2.03;;;;;;;15.12;100.00;101995.75;5068923;28;20216;-70
2023/06/10 05:27:42;;;;;;;6.17;2.50;;;;;;;15.18;100.00;101990.69;5070261;28;20189;-70
2023/06/10 05:30:10;;;;;;;3.67;2.20;;;;;;;15.30;100.00;101992.66;5070785;28;20249;-70
2023/06/10 05:32:36;;;;;;;4.93;2.13;;;;;;;15.45;100.00;101985.22;5068833;28;20231;-70
2023/06/10 05:35:01;;;;;;;7.40;2.20;;;;;;;15.53;100.00;101988.81;5067379;28;20188;-70
2023/06/10 05:37:27;;;;;;;6.47;1.87;;;;;;;15.72;100.00;101994.31;5065945;28;20188;-69
2023/06/10 05:39:52;;;;;;;6.10;2.07;;;;;;;15.78;100.00;101984.09;5064951;28;20356;-71
2023/06/10 05:42:18;;;;;;;5.47;2.30;;;;;;;15.92;100.00;101986.88;5069386;28;20663;-72
2023/06/10 05:44:43;;;;;;;7.53;2.17;;;;;;;15.99;100.00;101988.72;5067991;28;20200;-72
2023/06/10 05:47:09;;;;;;;7.50;2.60;;;;;;;16.10;100.00;101990.63;5069025;28;20192;-71
2023/06/10 05:49:34;;;;;;;7.40;2.57;;;;;;;16.13;100.00;101976.88;5068135;28;20248;-71
2023/06/10 05:52:00;;;;;;;6.20;2.40;;;;;;;16.26;100.00;101969.31;5067018;28;20200;-71
2023/06/10 05:54:26;;;;;;;4.57;2.20;;;;;;;16.32;100.00;101977.19;5062447;28;20273;-70
2023/06/10 05:56:51;;;;;;;7.00;2.50;;;;;;;16.42;100.00;101967.84;5069824;28;20704;-70
2023/06/10 05:59:17;;;;;;;6.03;2.50;;;;;;;16.49;100.00;101962.78;5069661;28;20193;-70
2023/06/10 06:01:42;;;;;;;5.23;2.13;;;;;;;16.64;100.00;101960.41;5069044;28;20193;-70
2023/06/10 06:04:08;;;;;;;7.37;2.63;;;;;;;16.67;100.00;101959.59;5069216;28;20713;-70
2023/06/10 06:06:35;;;;;;;4.47;2.10;;;;;;;16.87;100.00;101965.88;5058588;28;20558;-70
2023/06/10 06:09:00;;;;;;;5.53;2.33;;;;;;;17.02;100.00;101955.69;5063558;28;20247;-70
2023/06/10 06:11:26;;;;;;;6.10;2.20;;;;;;;17.07;100.00;101951.41;5069069;28;20916;-71
2023/06/10 06:13:51;;;;;;;10.23;3.27;;;;;;;17.04;100.00;101952.25;5064766;28;20730;-70
2023/06/10 06:16:18;;;;;;;4.07;2.27;;;;;;;17.14;100.00;101938.56;5065210;28;20282;-70
2023/06/10 06:18:44;;;;;;;7.03;2.20;;;;;;;17.24;100.00;101952.47;5067305;28;20188;-70
2023/06/10 06:21:09;;;;;;;5.63;2.13;;;;;;;17.33;100.00;101948.25;5066176;28;20231;-70
2023/06/10 06:23:35;;;;;;;7.73;2.20;;;;;;;17.42;100.00;101947.50;5064129;28;20303;-70
2023/06/10 06:26:00;;;;;;;4.47;2.40;;;;;;;17.52;100.00;101937.25;5068736;28;20191;-70
2023/06/10 06:28:28;;;;;;;7.60;2.53;;;;;;;17.68;100.00;101936.50;5067111;28;20618;-70
2023/06/10 06:30:56;;;;;;;4.80;2.23;;;;;;;17.81;100.00;101942.66;5066706;28;20201;-70
2023/06/10 06:33:21;;;;;;;6.90;2.70;;;;;;;17.93;100.00;101951.41;5066570;28;20219;-71
2023/06/10 06:35:47;;;;;;;5.17;1.93;;;;;;;18.01;100.00;101962.66;5065970;28;20227;-70
2023/06/10 06:38:14;;;;;;;6.97;2.40;;;;;;;18.24;100.00;101948.13;5060182;28;20189;-70
2023/06/10 06:40:40;;;;;;;6.33;2.27;;;;;;;18.22;100.00;101930.81;5068220;28;20258;-70
2023/06/10 06:43:05;;;;;;;10.60;3.00;;;;;;;18.19;100.00;101929.09;5058165;28;20312;-70
2023/06/10 06:45:52;;;;;;;6.77;2.50;;;;;;;18.39;100.00;101926.66;5066712;28;20201;-72
2023/06/10 06:48:17;;;;;;;8.23;3.10;;;;;;;18.56;100.00;101936.22;5065105;28;20195;-71
2023/06/10 06:50:43;;;;;;;6.90;2.50;;;;;;;18.71;100.00;101904.28;5057861;28;20189;-71
2023/06/10 06:53:08;;;;;;;4.43;2.20;;;;;;;18.79;100.00;101897.41;5064681;28;20735;-71
2023/06/10 06:55:33;;;;;;;7.00;2.10;;;;;;;19.05;100.00;101899.19;5067418;28;20637;-71
2023/06/10 06:58:02;;;;;;;5.77;2.43;;;;;;;19.12;100.00;101871.50;5063776;28;20602;-70
2023/06/10 07:00:28;;;;;;;5.07;2.30;;;;;;;19.19;100.00;101863.72;5067995;28;20212;-70
2023/06/10 07:02:53;;;;;;;8.30;2.73;;;;;;;19.25;100.00;101849.91;5058952;28;20712;-71
2023/06/10 07:05:19;;;;;;;4.87;2.53;;;;;;;19.22;100.00;101874.16;5066607;28;20209;-70
2023/06/10 07:07:44;;;;;;;5.83;2.83;;;;;;;19.29;100.00;101875.00;5066927;28;20216;-70
2023/06/10 07:10:10;;;;;;;4.97;2.47;;;;;;;19.53;100.00;101872.41;5066386;28;20557;-71
2023/06/10 07:12:35;;;;;;;7.33;2.77;;;;;;;19.63;100.00;101849.00;5067420;28;20229;-70
2023/06/10 07:15:00;;;;;;;5.87;2.57;;;;;;;19.75;100.00;101856.78;5060133;28;20228;-70
2023/06/10 07:17:26;;;;;;;8.23;2.73;;;;;;;19.83;100.00;101851.56;5065252;28;20235;-71
2023/06/10 07:19:52;;;;;;;5.10;2.50;;;;;;;19.98;100.00;101855.00;5066046;28;20353;-70
2023/06/10 07:22:17;;;;;;;7.40;2.70;;;;;;;20.05;100.00;101830.72;5064622;28;20733;-70
2023/06/10 07:24:43;;;;;;;11.47;3.00;;;;;;;20.25;100.00;101815.91;5063851;28;20228;-70
2023/06/10 07:27:10;;;;;;;8.37;2.67;;;;;;;20.30;100.00;101824.56;5063515;28;20200;-70
2023/06/10 07:29:35;;;;;;;6.77;2.47;;;;;;;20.40;100.00;101815.00;5064250;28;20222;-70
2023/06/10 07:32:03;;;;;;;6.27;2.53;;;;;;;20.46;100.00;101810.59;5064986;28;20197;-70
2023/06/10 07:34:28;;;;;;;7.57;2.30;;;;;;;20.47;100.00;101798.47;5070117;28;20190;-70
2023/06/10 07:36:53;;;;;;;4.77;2.80;;;;;;;20.58;100.00;101786.22;5065577;28;20224;-70
2023/06/10 07:39:19;;;;;;;5.03;2.50;;;;;;;20.78;100.00;101774.81;5065012;28;20598;-71
2023/06/10 07:41:44;;;;;;;5.70;2.70;;;;;;;20.72;100.00;101774.88;5066710;28;20191;-70
2023/06/10 07:44:10;;;;;;;5.90;2.67;;;;;;;21.11;100.00;101751.16;5065784;28;20588;-71
2023/06/10 07:46:35;;;;;;;5.33;2.80;;;;;;;21.23;100.00;101740.59;5065948;28;20283;-70
2023/06/10 07:49:00;;;;;;;6.07;2.80;;;;;;;21.16;100.00;101743.28;5062273;28;20189;-70
2023/06/10 07:51:26;;;;;;;6.90;2.90;;;;;;;21.28;100.00;101698.88;5062406;28;20227;-70
2023/06/10 07:53:51;;;;;;;7.07;2.63;;;;;;;21.05;100.00;101782.44;5066476;28;20437;-70
2023/06/10 07:56:17;;;;;;;7.73;2.50;;;;;;;21.44;100.00;101747.34;5066341;28;20208;-70
2023/06/10 07:58:42;;;;;;;5.03;2.80;;;;;;;21.64;100.00;101714.94;5076510;28;20193;-70
2023/06/10 08:01:08;;;;;;;7.20;2.70;;;;;;;21.86;100.00;101729.50;5063860;28;20703;-71
2023/06/10 08:03:34;;;;;;;6.70;2.87;;;;;;;21.98;100.00;101686.75;5067022;28;20270;-71
2023/06/10 08:05:59;;;;;;;7.37;2.97;;;;;;;22.04;100.00;101682.31;5065925;28;20193;-70
2023/06/10 08:08:25;;;;;;;6.13;2.70;;;;;;;22.10;100.00;101681.31;5066206;28;20204;-70
2023/06/10 08:10:50;;;;;;;4.73;2.53;;;;;;;22.33;100.00;101647.06;5065767;28;20197;-71
2023/06/10 08:13:16;;;;;;;7.60;3.13;;;;;;;22.43;100.00;101642.53;5060330;28;20572;-71
2023/06/10 08:15:42;;;;;;;5.77;2.67;;;;;;;22.48;100.00;101679.06;5064946;28;20804;-70
2023/06/10 08:18:07;;;;;;;5.30;2.83;;;;;;;22.45;100.00;101676.50;5066091;28;20197;-71
2023/06/10 08:20:32;;;;;;;8.20;3.33;;;;;;;22.62;100.00;101635.31;5059522;28;20218;-71
2023/06/10 08:22:58;;;;;;;6.23;2.70;;;;;;;22.88;100.00;101646.13;5063470;28;20227;-70
2023/06/10 08:25:23;;;;;;;5.63;2.70;;;;;;;22.93;100.00;101662.59;5066611;28;20650;-70
2023/06/10 08:27:50;;;;;;;5.10;2.93;;;;;;;22.79;100.00;101645.44;5064215;28;20277;-71
2023/06/10 08:30:16;;;;;;;5.30;2.83;;;;;;;23.07;99.01;101644.91;5064309;28;20675;-70
2023/06/10 08:32:41;;;;;;;5.73;2.57;;;;;;;23.23;93.49;101608.91;5066054;28;20213;-71
2023/06/10 08:35:07;;;;;;;6.10;2.60;;;;;;;23.10;94.44;101617.84;5070061;28;20217;-70
2023/06/10 08:37:33;;;;;;;5.43;2.50;;;;;;;23.38;98.90;101655.69;5070765;28;20675;-71
2023/06/10 08:39:58;;;;;;;7.53;2.80;;;;;;;23.57;95.17;101636.09;5067962;28;20212;-71
2023/06/10 08:43:13;;;;;;;6.80;3.10;;;;;;;23.63;92.93;101626.38;5070670;28;20571;-71
2023/06/10 08:45:43;;;;;;;5.77;3.10;;;;;;;23.89;90.19;101617.97;5023492;28;20277;-71
2023/06/10 08:48:10;;;;;;;5.67;2.97;;;;;;;24.00;87.17;101602.88;5058622;28;20201;-71
2023/06/10 08:50:38;;;;;;;5.70;2.53;;;;;;;24.07;91.72;101643.75;5082144;28;20276;-71
2023/06/10 08:53:06;;;;;;;5.20;3.22;;;;;;;24.31;84.78;101601.25;5068324;28;20762;-71
2023/06/10 08:55:33;;;;;;;5.80;3.00;;;;;;;24.35;89.06;101616.84;5068926;28;20196;-71
2023/06/10 08:58:00;;;;;;;5.57;3.22;;;;;;;24.42;86.55;101602.72;5066635;28;20663;-71
2023/06/10 09:00:26;;;;;;;6.90;2.80;;;;;;;24.62;87.20;101600.47;5069838;28;20209;-71
2023/06/10 09:02:52;;;;;;;4.67;2.90;;;;;;;24.80;83.87;101591.25;5069084;28;20599;-71
2023/06/10 09:05:17;;;;;;;6.05;2.63;;;;;;;24.71;79.22;101573.16;5064693;28;20203;-70
2023/06/10 09:07:44;;;;;;;4.90;3.15;;;;;;;24.80;82.38;101589.50;5068629;28;20239;-70
2023/06/10 09:10:11;;;;;;;4.68;2.85;;;;;;;24.85;77.34;101566.66;5066255;28;20724;-70
2023/06/10 09:12:37;;;;;;;3.92;2.47;;;;;;;25.09;79.76;101586.94;5068102;28;20787;-71
2023/06/10 09:15:04;;;;;;;6.35;2.92;;;;;;;25.15;78.08;101575.41;5068758;28;20197;-71
2023/06/10 09:17:29;;;;;;;7.03;2.70;;;;;;;25.39;81.94;101604.47;5069664;28;20196;-71
2023/06/10 09:19:56;;;;;;;7.05;2.88;;;;;;;25.70;78.76;101589.50;5068653;28;20209;-72
2023/06/10 09:22:23;;;;;;;6.85;2.90;;;;;;;25.74;73.29;101567.50;5068734;28;20273;-72
2023/06/10 09:24:49;;;;;;;5.47;2.67;;;;;;;25.78;70.99;101574.38;5067686;28;20197;-72
2023/06/10 09:27:15;;;;;;;5.63;3.13;;;;;;;25.88;71.83;101593.34;5052978;28;20188;-71
2023/06/10 09:29:57;;;;;;;7.15;2.80;;;;;;;26.01;73.99;101613.94;5067175;28;20276;-71
2023/06/10 09:32:23;;;;;;;8.23;3.30;;;;;;;26.07;70.79;101610.25;5065591;28;20224;-71
2023/06/10 09:34:50;;;;;;;5.28;2.90;;;;;;;26.24;72.28;101613.22;5068919;28;20189;-71
2023/06/10 09:37:25;;;;;;;6.97;3.30;;;;;;;26.37;73.52;101632.91;5068100;28;20704;-71
2023/06/10 09:40:05;;;;;;;4.88;3.20;;;;;;;26.18;71.21;101634.41;5062376;28;20231;-71
2023/06/10 09:42:35;;;;;;;5.50;3.35;;;;;;;26.20;72.50;101649.22;5064918;28;20217;-71
2023/06/10 09:45:02;;;;;;;6.65;3.28;;;;;;;26.50;67.88;101628.97;5066174;28;20228;-72
2023/06/10 09:47:27;;;;;;;5.97;3.28;;;;;;;26.52;72.86;101664.78;5069268;28;20196;-73
2023/06/10 09:49:53;;;;;;;5.72;3.20;;;;;;;26.69;67.35;101627.47;5068672;28;20196;-72
2023/06/10 09:52:26;;;;;;;7.30;3.67;;;;;;;26.80;68.78;101657.72;5068730;28;20593;-73
2023/06/10 09:54:53;;;;;;;6.60;3.20;;;;;;;26.76;67.88;101642.13;5068601;28;20196;-72
2023/06/10 09:57:22;;;;;;;7.97;3.50;;;;;;;26.90;69.70;101656.50;5071019;28;20185;-73
2023/06/10 09:59:48;;;;;;;6.40;3.35;;;;;;;27.09;68.79;101665.50;5065170;28;20300;-73
2023/06/10 10:02:15;;;;;;;6.50;3.65;;;;;;;27.03;64.37;101647.28;5065853;28;20686;-72
2023/06/10 10:04:41;;;;;;;7.03;3.70;;;;;;;27.12;67.26;101670.63;5067553;28;20654;-72
2023/06/10 10:07:08;;;;;;;6.45;3.55;;;;;;;27.31;62.64;101637.50;5069252;28;20210;-71
2023/06/10 10:09:36;;;;;;;4.78;3.63;;;;;;;27.21;64.88;101667.69;5069128;28;20197;-73
2023/06/10 10:12:02;;;;;;;5.70;3.50;;;;;;;27.30;63.84;101656.84;5059619;28;20197;-72
2023/06/10 10:14:31;;;;;;;7.20;3.85;;;;;;;27.29;59.64;101631.44;5068812;28;20235;-72
2023/06/10 10:16:59;;;;;;;5.93;4.18;;;;;;;27.08;62.19;101666.38;5067785;28;20215;-72
2023/06/10 10:19:30;;;;;;;6.40;3.88;;;;;;;27.55;61.72;101662.94;5067224;28;20228;-72
2023/06/10 10:22:10;;;;;;;5.05;3.70;;;;;;;27.48;58.90;101648.28;5066089;28;20189;-72
2023/06/10 10:24:49;;;;;;;4.75;3.42;;;;;;;27.62;61.53;101674.06;5065848;28;20192;-72
2023/06/10 10:27:24;;;;;;;6.07;3.60;;;;;;;27.46;62.68;101686.97;5064030;28;20200;-72
2023/06/10 10:29:53;;;;;;;8.02;4.15;;;;;;;27.80;59.10;101665.50;5062911;28;20208;-72
2023/06/10 10:32:26;;;;;;;5.70;3.38;;;;;;;27.95;60.15;101680.75;5068122;28;20212;-72
2023/06/10 10:35:17;;;;;;;6.47;3.75;;;;;;;28.19;60.59;101679.78;5068274;28;20192;-72
2023/06/10 10:37:42;;;;;;;5.82;3.53;;;;;;;28.18;63.97;101696.53;5066536;28;20290;-73
2023/06/10 10:40:10;;;;;;;6.28;3.78;;;;;;;28.26;58.74;101662.78;5066871;28;20675;-73
2023/06/10 10:42:36;;;;;;;8.30;4.70;;;;;;;28.36;58.40;101666.81;5058957;28;20224;-72
2023/06/10 10:45:02;;;;;;;5.75;3.78;;;;;;;28.19;60.37;101685.06;5064524;28;20655;-71
2023/06/10 10:47:30;;;;;;;5.78;4.10;;;;;;;28.25;60.80;101690.06;5068405;28;20250;-71
2023/06/10 10:49:59;;;;;;;9.23;4.35;;;;;;;28.37;60.07;101674.63;5068410;28;20197;-72
2023/06/10 10:52:25;;;;;;;5.88;4.25;;;;;;;28.48;58.81;101672.47;5067644;28;20221;-71
2023/06/10 10:54:53;;;;;;;6.75;4.25;;;;;;;28.56;56.04;101658.94;5069778;28;20257;-72
2023/06/10 10:57:23;;;;;;;7.05;3.80;;;;;;;28.87;56.17;101673.41;5062770;28;20193;-72
2023/06/10 10:59:48;;;;;;;5.57;3.78;;;;;;;28.85;55.87;101663.84;5069185;28;20248;-71
2023/06/10 11:02:45;;;;;;;6.53;4.20;;;;;;;28.79;58.05;101704.53;5066321;28;20232;-71
2023/06/10 11:05:14;;;;;;;7.32;4.03;;;;;;;29.08;57.71;101690.13;5067656;28;20205;-71
2023/06/10 11:07:40;;;;;;;7.25;4.22;;;;;;;28.95;55.36;101659.88;5068509;28;20254;-73
2023/06/10 11:10:07;;;;;;;8.95;4.30;;;;;;;29.20;56.95;101686.97;5068147;28;20201;-72
2023/06/10 11:12:50;;;;;;;6.18;4.65;;;;;;;29.02;56.54;101671.94;5065129;28;20221;-72
2023/06/10 11:15:20;;;;;;;7.22;4.35;;;;;;;29.19;54.04;101654.44;5068133;28;20192;-72
2023/06/10 11:18:15;;;;;;;7.68;4.72;;;;;;;29.26;57.79;101695.47;5065385;28;20263;-72
2023/06/10 11:20:50;;;;;;;6.78;4.57;;;;;;;29.21;52.74;101651.72;5051864;28;20220;-72